Time;durP1;ratioP1;P1;durP2;ratioP2;P2;SDS_P1;SDS_P2;PMS_P1;PMS_P2;Temp;Humidity;BMP_temperature;BMP_pressure;BME280_temperature;BME280_humidity;BME280_pressure;Samples;Min_cycle;Max_cycle;Signal;HPM_P1;HPM_P2
2022/03/27 00:00:29;;;;;;;5.30;2.92;;;12.90;49.30;;;;;;4969098;28;20075;-86
2022/03/27 00:02:55;;;;;;;5.63;2.70;;;12.90;49.50;;;;;;5013296;28;20521;-86
2022/03/27 00:05:21;;;;;;;4.95;3.15;;;12.80;49.40;;;;;;5000927;28;20394;-86
2022/03/27 00:07:46;;;;;;;5.13;3.13;;;12.80;50.30;;;;;;4989579;28;20030;-86
2022/03/27 00:10:12;;;;;;;5.07;2.77;;;12.80;49.70;;;;;;4997764;28;20474;-86
2022/03/27 00:12:38;;;;;;;4.43;2.88;;;12.70;49.60;;;;;;5012018;28;20434;-86
2022/03/27 00:15:04;;;;;;;5.30;3.07;;;12.70;49.80;;;;;;4979391;28;20388;-87
2022/03/27 00:17:32;;;;;;;4.73;2.73;;;12.70;50.00;;;;;;4999370;28;20299;-86
2022/03/27 00:20:03;;;;;;;4.53;2.70;;;12.60;49.90;;;;;;5012457;28;20264;-86
2022/03/27 00:22:29;;;;;;;4.22;2.63;;;12.60;50.20;;;;;;4982821;28;20030;-86
2022/03/27 00:24:56;;;;;;;5.18;2.70;;;12.60;50.20;;;;;;4970554;28;20093;-86
2022/03/27 00:27:22;;;;;;;4.73;2.63;;;12.50;50.20;;;;;;5011147;28;20053;-86
2022/03/27 00:29:47;;;;;;;4.40;2.67;;;12.50;50.30;;;;;;4959962;28;20485;-87
2022/03/27 00:32:13;;;;;;;5.55;2.80;;;12.40;50.30;;;;;;4981412;28;20037;-86
2022/03/27 00:34:38;;;;;;;4.03;2.63;;;12.40;50.40;;;;;;5013103;28;20514;-86
2022/03/27 00:37:04;;;;;;;5.28;2.63;;;12.40;50.40;;;;;;4997247;28;20322;-86
2022/03/27 00:39:30;;;;;;;4.43;2.73;;;12.30;50.40;;;;;;4992008;28;20029;-86
2022/03/27 00:41:56;;;;;;;3.95;2.50;;;12.30;50.70;;;;;;4993268;28;20226;-86
2022/03/27 00:44:22;;;;;;;4.60;2.70;;;12.20;50.80;;;;;;4999268;28;20061;-86
2022/03/27 00:46:47;;;;;;;4.68;2.70;;;12.20;50.90;;;;;;4996386;28;20394;-86
2022/03/27 00:49:13;;;;;;;5.17;2.63;;;12.20;51.10;;;;;;5015062;28;20989;-86
2022/03/27 00:51:39;;;;;;;4.13;2.47;;;12.10;51.10;;;;;;4996908;28;20465;-86
2022/03/27 00:54:05;;;;;;;5.67;2.70;;;12.10;51.10;;;;;;5003451;28;20679;-86
2022/03/27 00:56:31;;;;;;;4.78;2.50;;;12.10;51.20;;;;;;4981932;28;20068;-86
2022/03/27 00:58:56;;;;;;;4.78;2.70;;;12.00;51.30;;;;;;5011913;28;20204;-86
2022/03/27 01:01:38;;;;;;;4.53;2.80;;;12.00;51.40;;;;;;4968794;28;20140;-84
2022/03/27 01:04:06;;;;;;;3.92;2.10;;;12.00;53.30;;;;;;4988028;28;20437;-84
2022/03/27 01:06:33;;;;;;;4.05;2.35;;;11.90;51.60;;;;;;4984135;28;20429;-84
2022/03/27 01:11:47;;;;;;;4.63;2.58;;;11.90;52.20;;;;;;4992795;28;20034;-84
2022/03/27 01:14:17;;;;;;;6.10;3.10;;;11.80;52.10;;;;;;4997719;28;20375;-84
2022/03/27 01:16:56;;;;;;;4.03;2.40;;;11.80;52.30;;;;;;4985592;28;20141;-84
2022/03/27 01:19:21;;;;;;;4.38;2.78;;;11.80;52.90;;;;;;4998520;28;20030;-84
2022/03/27 01:21:47;;;;;;;4.10;2.50;;;11.80;52.30;;;;;;4996103;28;20072;-84
2022/03/27 01:24:16;;;;;;;4.82;2.30;;;11.70;52.50;;;;;;4998217;28;20092;-84
2022/03/27 01:26:42;;;;;;;4.00;2.45;;;11.70;52.90;;;;;;4987128;28;20494;-84
2022/03/27 01:29:08;;;;;;;4.00;2.27;;;11.70;52.90;;;;;;4980733;28;20116;-84
2022/03/27 01:31:34;;;;;;;4.13;2.60;;;11.70;52.90;;;;;;4966636;28;20037;-84
2022/03/27 01:34:01;;;;;;;4.95;2.53;;;11.60;53.00;;;;;;4979131;28;20092;-84
2022/03/27 01:36:29;;;;;;;3.60;2.17;;;11.60;53.00;;;;;;4998541;28;20041;-84
2022/03/27 01:38:56;;;;;;;3.83;2.35;;;11.60;53.10;;;;;;4993934;28;20018;-84
2022/03/27 01:41:23;;;;;;;4.53;2.60;;;11.60;53.20;;;;;;4988530;28;20500;-84
2022/03/27 01:43:49;;;;;;;4.60;2.47;;;11.50;53.40;;;;;;4994857;28;20375;-83
2022/03/27 01:46:15;;;;;;;4.47;2.40;;;11.50;53.20;;;;;;5000159;28;20028;-84
2022/03/27 01:48:41;;;;;;;3.83;2.22;;;11.50;53.40;;;;;;4997947;28;20065;-84
2022/03/27 01:51:07;;;;;;;3.90;2.20;;;11.50;53.60;;;;;;4996770;28;20298;-84
2022/03/27 01:53:36;;;;;;;4.25;2.53;;;11.50;53.90;;;;;;4998138;28;20037;-84
2022/03/27 01:56:02;;;;;;;4.38;2.50;;;11.50;54.20;;;;;;4957242;28;20437;-84
2022/03/27 01:58:27;;;;;;;4.60;2.67;;;11.40;53.90;;;;;;4996749;28;20076;-84
2022/03/27 02:00:53;;;;;;;3.60;2.22;;;11.40;53.90;;;;;;4994234;28;20470;-84
2022/03/27 02:03:19;;;;;;;4.80;2.33;;;11.30;54.00;;;;;;4983071;28;20167;-84
2022/03/27 02:05:44;;;;;;;4.20;2.50;;;11.30;54.00;;;;;;4981152;28;20030;-84
2022/03/27 02:08:12;;;;;;;3.87;2.23;;;11.30;54.50;;;;;;4974590;28;20057;-84
2022/03/27 02:10:38;;;;;;;3.90;2.30;;;11.30;54.30;;;;;;4996377;28;20751;-84
2022/03/27 02:13:10;;;;;;;5.00;2.28;;;11.20;54.20;;;;;;4988810;28;20053;-84
2022/03/27 02:15:36;;;;;;;3.75;2.20;;;11.20;54.40;;;;;;5009710;28;20308;-84
2022/03/27 02:18:02;;;;;;;4.30;2.60;;;11.20;54.80;;;;;;4998611;28;20481;-84
2022/03/27 02:20:28;;;;;;;4.10;2.17;;;11.20;54.90;;;;;;4978207;28;20026;-84
2022/03/27 02:22:54;;;;;;;4.37;2.40;;;11.10;54.90;;;;;;5015292;28;20734;-84
2022/03/27 02:25:20;;;;;;;4.37;2.17;;;11.10;55.00;;;;;;5011662;28;20876;-84
2022/03/27 02:27:46;;;;;;;4.43;2.45;;;11.10;54.90;;;;;;4991933;28;20071;-84
2022/03/27 02:30:15;;;;;;;4.23;2.40;;;11.10;55.00;;;;;;4999065;28;20041;-84
2022/03/27 02:32:40;;;;;;;4.65;2.25;;;11.00;55.10;;;;;;4988082;28;20053;-84
2022/03/27 02:35:06;;;;;;;3.83;2.20;;;11.00;55.30;;;;;;5000124;28;20501;-84
2022/03/27 02:37:32;;;;;;;4.13;2.17;;;11.00;55.40;;;;;;5000546;28;20118;-84
2022/03/27 02:39:58;;;;;;;3.90;2.30;;;11.00;55.40;;;;;;5017884;28;20234;-84
2022/03/27 02:42:23;;;;;;;3.43;2.10;;;11.00;55.70;;;;;;4997701;28;20267;-84
2022/03/27 02:44:49;;;;;;;3.65;2.25;;;11.00;55.70;;;;;;4992677;28;20101;-84
2022/03/27 02:47:16;;;;;;;3.30;2.10;;;10.90;55.80;;;;;;4981239;28;20030;-84
2022/03/27 02:49:42;;;;;;;3.55;2.10;;;10.90;55.90;;;;;;4971243;28;20030;-84
2022/03/27 02:52:07;;;;;;;4.50;2.60;;;10.90;56.00;;;;;;4999437;28;20490;-83
2022/03/27 02:54:33;;;;;;;3.50;2.40;;;10.90;56.00;;;;;;5016083;28;20199;-84
2022/03/27 02:56:58;;;;;;;3.83;2.40;;;10.90;56.40;;;;;;4985022;28;20053;-84
2022/03/27 02:59:25;;;;;;;3.77;2.30;;;10.80;56.30;;;;;;4973255;28;20022;-84
2022/03/27 03:01:51;;;;;;;3.10;2.00;;;10.80;56.30;;;;;;5002979;28;20152;-84
2022/03/27 03:04:17;;;;;;;3.90;2.17;;;10.80;56.30;;;;;;4984912;28;20034;-84
2022/03/27 03:06:43;;;;;;;3.73;2.23;;;10.80;56.50;;;;;;4984184;28;20088;-84
2022/03/27 03:09:10;;;;;;;4.03;2.45;;;10.70;56.40;;;;;;5017866;28;20602;-83
2022/03/27 03:11:36;;;;;;;4.07;2.20;;;10.70;56.40;;;;;;4990215;28;20227;-84
2022/03/27 03:14:02;;;;;;;3.78;2.30;;;10.70;56.40;;;;;;4997387;28;20525;-84
2022/03/27 03:16:29;;;;;;;3.70;2.28;;;10.70;56.60;;;;;;4992080;28;20045;-83
2022/03/27 03:18:55;;;;;;;4.87;2.23;;;10.70;56.70;;;;;;5003006;28;20018;-84
2022/03/27 03:21:21;;;;;;;3.75;2.38;;;10.70;56.70;;;;;;4981201;28;20037;-84
2022/03/27 03:23:47;;;;;;;4.22;2.25;;;10.60;56.80;;;;;;5015064;28;20113;-83
2022/03/27 03:26:12;;;;;;;3.50;2.10;;;10.60;57.00;;;;;;4995435;28;20188;-84
2022/03/27 03:28:38;;;;;;;4.88;2.42;;;10.60;57.00;;;;;;5022315;28;20360;-84
2022/03/27 03:31:05;;;;;;;3.47;2.20;;;10.60;57.00;;;;;;4994522;28;20040;-84
2022/03/27 03:33:31;;;;;;;3.23;2.03;;;10.50;57.00;;;;;;5013918;28;20395;-84
2022/03/27 03:35:57;;;;;;;4.28;2.40;;;10.50;57.00;;;;;;4983324;28;20033;-84
2022/03/27 03:38:22;;;;;;;3.28;2.20;;;10.50;57.30;;;;;;5005047;28;20255;-84
2022/03/27 03:40:48;;;;;;;4.77;2.30;;;10.50;57.40;;;;;;5017262;28;20030;-84
2022/03/27 03:43:14;;;;;;;3.50;2.30;;;10.50;57.40;;;;;;4997129;28;20775;-84
2022/03/27 03:45:40;;;;;;;3.60;2.30;;;10.40;57.30;;;;;;4998832;28;20444;-84
2022/03/27 03:48:06;;;;;;;3.40;2.13;;;10.40;57.50;;;;;;4989930;28;20447;-84
2022/03/27 03:50:35;;;;;;;3.83;2.10;;;10.30;57.60;;;;;;4998112;28;20025;-84
2022/03/27 03:53:02;;;;;;;3.42;2.13;;;10.40;57.50;;;;;;5001608;28;20034;-84
2022/03/27 03:55:28;;;;;;;3.38;1.92;;;10.30;57.60;;;;;;4978912;28;20038;-84
2022/03/27 03:57:56;;;;;;;3.65;2.28;;;10.30;57.70;;;;;;5000959;28;20034;-84
2022/03/27 04:00:22;;;;;;;3.10;2.13;;;10.30;57.70;;;;;;4997706;28;20239;-84
2022/03/27 04:02:48;;;;;;;3.22;2.00;;;10.20;57.60;;;;;;5008373;28;20034;-84
2022/03/27 04:05:14;;;;;;;3.72;2.40;;;10.20;57.60;;;;;;4998134;28;20087;-83
2022/03/27 04:07:40;;;;;;;3.43;2.20;;;10.20;57.80;;;;;;4964318;28;20084;-84
2022/03/27 04:10:06;;;;;;;3.72;2.00;;;10.10;57.80;;;;;;4998228;28;20466;-84
2022/03/27 04:12:32;;;;;;;4.22;2.40;;;10.10;57.90;;;;;;5014212;28;20530;-84
2022/03/27 04:14:58;;;;;;;3.40;2.30;;;10.10;58.10;;;;;;4999827;28;20033;-84
2022/03/27 04:17:23;;;;;;;4.07;2.30;;;10.10;58.90;;;;;;4976831;28;20735;-84
2022/03/27 04:19:49;;;;;;;3.65;2.15;;;10.10;58.20;;;;;;4990774;28;20033;-84
2022/03/27 04:22:15;;;;;;;3.47;2.03;;;10.10;58.30;;;;;;4983479;28;20386;-84
2022/03/27 04:24:41;;;;;;;3.35;2.05;;;10.00;58.20;;;;;;4998575;28;20330;-84
2022/03/27 04:27:07;;;;;;;3.17;2.00;;;10.00;58.20;;;;;;4996588;28;20573;-84
2022/03/27 04:29:32;;;;;;;3.67;2.30;;;10.00;58.40;;;;;;4997422;28;20243;-84
2022/03/27 04:31:58;;;;;;;4.33;2.13;;;10.00;58.40;;;;;;5014896;28;20441;-84
2022/03/27 04:34:24;;;;;;;3.40;2.20;;;10.00;58.50;;;;;;4987689;28;20112;-84
2022/03/27 04:36:49;;;;;;;4.37;2.30;;;9.90;58.50;;;;;;5015558;28;20037;-84
2022/03/27 04:39:15;;;;;;;3.85;2.33;;;9.90;58.50;;;;;;4997235;28;20113;-84
2022/03/27 04:41:41;;;;;;;3.63;2.00;;;9.90;58.60;;;;;;5015977;28;20030;-84
2022/03/27 04:44:08;;;;;;;4.00;2.30;;;9.90;58.70;;;;;;4981315;28;20030;-84
2022/03/27 04:46:34;;;;;;;3.92;2.33;;;9.90;58.70;;;;;;4988616;28;20141;-84
2022/03/27 04:49:01;;;;;;;4.82;2.17;;;9.80;58.70;;;;;;5003860;28;20034;-84
2022/03/27 04:51:27;;;;;;;3.80;2.33;;;9.80;58.80;;;;;;5013275;28;20219;-84
2022/03/27 04:53:52;;;;;;;3.70;2.28;;;9.80;58.80;;;;;;4980368;28;20038;-84
2022/03/27 04:56:18;;;;;;;3.40;2.10;;;9.70;58.90;;;;;;4983293;28;20521;-84
2022/03/27 04:58:44;;;;;;;3.93;2.13;;;9.80;59.10;;;;;;5016247;28;20030;-84
2022/03/27 05:01:10;;;;;;;3.95;2.58;;;9.70;59.00;;;;;;4976851;28;20035;-84
2022/03/27 05:03:36;;;;;;;3.20;2.03;;;9.70;59.20;;;;;;4984883;28;20053;-84
2022/03/27 05:06:02;;;;;;;3.65;2.15;;;9.70;59.20;;;;;;5001376;28;20562;-84
2022/03/27 05:08:28;;;;;;;4.82;2.72;;;9.70;59.60;;;;;;4998024;28;20032;-84
2022/03/27 05:10:54;;;;;;;3.70;2.20;;;9.70;59.70;;;;;;4964037;28;20220;-84
2022/03/27 05:13:20;;;;;;;3.60;2.20;;;9.70;60.00;;;;;;4983575;28;20104;-84
2022/03/27 05:15:48;;;;;;;4.35;2.47;;;9.80;60.10;;;;;;4995841;28;20034;-84
2022/03/27 05:18:13;;;;;;;5.72;2.90;;;9.80;60.50;;;;;;5015785;28;20055;-84
2022/03/27 05:20:41;;;;;;;3.70;2.20;;;9.90;60.50;;;;;;4990162;28;20026;-84
2022/03/27 05:23:07;;;;;;;4.47;2.67;;;9.90;60.80;;;;;;4962462;28;20243;-84
2022/03/27 05:25:40;;;;;;;4.50;2.47;;;9.90;60.70;;;;;;4966512;28;20037;-84
2022/03/27 05:28:07;;;;;;;6.03;2.90;;;10.00;61.00;;;;;;4993894;28;20136;-84
2022/03/27 05:30:33;;;;;;;4.73;3.10;;;10.10;61.30;;;;;;5013319;28;20121;-84
2022/03/27 05:32:59;;;;;;;5.03;2.70;;;10.20;61.20;;;;;;4985094;28;20307;-84
2022/03/27 05:35:26;;;;;;;6.20;2.83;;;10.20;61.40;;;;;;4966847;28;20033;-84
2022/03/27 05:37:54;;;;;;;4.47;2.58;;;10.30;61.70;;;;;;5000344;28;20045;-84
2022/03/27 05:40:22;;;;;;;4.67;2.87;;;10.30;61.50;;;;;;4984510;28;20398;-83
2022/03/27 05:42:49;;;;;;;4.60;2.60;;;10.40;61.90;;;;;;4990007;28;20030;-83
2022/03/27 05:45:16;;;;;;;4.10;2.42;;;10.50;62.00;;;;;;4983449;28;20065;-84
2022/03/27 05:47:42;;;;;;;5.47;2.42;;;10.50;62.10;;;;;;5000126;28;20045;-83
2022/03/27 05:50:12;;;;;;;4.03;2.38;;;10.50;62.10;;;;;;5005425;28;20639;-84
2022/03/27 05:52:39;;;;;;;4.70;2.67;;;10.60;62.20;;;;;;4992304;28;20533;-84
2022/03/27 05:55:05;;;;;;;4.50;2.35;;;10.60;62.30;;;;;;4994047;28;20025;-83
2022/03/27 05:57:31;;;;;;;4.28;2.38;;;10.60;62.20;;;;;;4970016;28;20026;-83
2022/03/27 05:59:57;;;;;;;3.97;2.42;;;10.60;61.80;;;;;;5002156;28;20064;-83
2022/03/27 06:02:22;;;;;;;4.03;2.43;;;10.70;62.20;;;;;;5007829;28;20494;-83
2022/03/27 06:04:48;;;;;;;4.60;2.67;;;10.70;62.10;;;;;;5003124;28;20030;-84
2022/03/27 06:07:14;;;;;;;6.00;3.10;;;10.70;62.10;;;;;;5017375;28;20486;-83
2022/03/27 06:09:40;;;;;;;4.63;2.58;;;10.70;62.40;;;;;;4990366;28;20042;-83
2022/03/27 06:12:06;;;;;;;5.50;3.10;;;10.70;61.50;;;;;;4993092;28;20311;-83
2022/03/27 06:14:33;;;;;;;5.80;3.25;;;10.80;62.40;;;;;;5014923;28;20103;-83
2022/03/27 06:16:58;;;;;;;4.68;2.80;;;10.80;62.90;;;;;;5002570;28;20026;-83
2022/03/27 06:19:25;;;;;;;5.50;3.07;;;10.80;63.20;;;;;;4994158;28;20310;-83
2022/03/27 06:21:50;;;;;;;4.32;2.50;;;10.80;62.30;;;;;;4979680;28;20409;-82
2022/03/27 06:24:16;;;;;;;5.27;2.77;;;10.80;62.10;;;;;;4990165;28;20377;-84
2022/03/27 06:26:42;;;;;;;5.57;2.88;;;10.90;61.80;;;;;;4984974;28;20068;-84
2022/03/27 06:29:09;;;;;;;5.97;3.40;;;10.90;62.30;;;;;;5011927;28;20018;-83
2022/03/27 06:31:37;;;;;;;6.88;3.28;;;10.90;62.70;;;;;;5008308;28;20450;-83
2022/03/27 06:34:03;;;;;;;6.20;3.33;;;10.90;62.90;;;;;;5029409;28;20259;-84
2022/03/27 06:36:29;;;;;;;6.40;3.47;;;10.90;63.10;;;;;;4978879;28;20479;-83
2022/03/27 06:38:55;;;;;;;6.28;3.40;;;10.90;63.10;;;;;;4985979;28;21606;-84
2022/03/27 06:41:20;;;;;;;7.20;3.93;;;10.90;62.90;;;;;;5005912;28;20022;-83
2022/03/27 06:43:46;;;;;;;7.80;3.60;;;10.90;62.40;;;;;;4970444;28;20025;-83
2022/03/27 06:46:16;;;;;;;6.07;3.57;;;11.00;62.10;;;;;;5002559;28;20045;-84
2022/03/27 06:48:46;;;;;;;6.25;3.30;;;11.00;62.90;;;;;;4996242;28;20037;-84
2022/03/27 06:51:13;;;;;;;5.90;3.25;;;11.00;63.00;;;;;;4998339;28;20037;-84
2022/03/27 06:53:39;;;;;;;5.97;3.33;;;11.00;63.90;;;;;;5002685;28;20026;-84
2022/03/27 06:56:06;;;;;;;5.13;3.05;;;11.00;63.10;;;;;;4989845;28;20506;-83
2022/03/27 06:58:31;;;;;;;5.63;3.22;;;11.00;63.30;;;;;;4989597;28;20113;-84
2022/03/27 07:03:41;;;;;;;6.07;3.53;;;11.10;63.80;;;;;;4999788;28;20368;-83
2022/03/27 07:06:08;;;;;;;6.43;3.38;;;11.10;63.70;;;;;;4980764;28;20371;-83
2022/03/27 07:08:33;;;;;;;8.38;3.45;;;11.10;63.50;;;;;;5008980;28;20045;-83
2022/03/27 07:10:59;;;;;;;9.00;3.93;;;11.20;63.40;;;;;;4973895;28;20128;-84
2022/03/27 07:13:25;;;;;;;6.43;3.53;;;11.20;63.10;;;;;;4992270;28;20546;-83
2022/03/27 07:15:50;;;;;;;6.77;3.60;;;11.30;63.10;;;;;;4997850;28;20041;-84
2022/03/27 07:18:17;;;;;;;7.07;3.55;;;11.30;62.90;;;;;;5006469;28;20524;-84
2022/03/27 07:20:44;;;;;;;6.85;3.40;;;11.30;63.10;;;;;;4984868;28;20370;-84
2022/03/27 07:23:12;;;;;;;8.27;3.87;;;11.30;63.40;;;;;;5007582;28;20219;-84
2022/03/27 07:25:40;;;;;;;6.35;3.38;;;11.30;62.80;;;;;;4987664;28;20376;-84
2022/03/27 07:28:08;;;;;;;7.18;3.72;;;11.30;63.50;;;;;;4994397;28;20212;-83
2022/03/27 07:30:35;;;;;;;6.75;3.47;;;11.40;64.00;;;;;;4968949;28;20069;-85
2022/03/27 07:33:01;;;;;;;7.68;3.70;;;11.40;63.90;;;;;;5004799;28;20103;-84
2022/03/27 07:35:30;;;;;;;8.33;4.20;;;11.40;64.20;;;;;;5010494;28;20026;-84
2022/03/27 07:37:56;;;;;;;7.47;3.65;;;11.50;64.30;;;;;;4989852;28;20038;-84
2022/03/27 07:40:22;;;;;;;7.30;3.97;;;11.50;63.80;;;;;;5031942;28;20025;-83
2022/03/27 07:42:50;;;;;;;8.25;4.10;;;11.50;64.20;;;;;;4991202;28;20034;-83
2022/03/27 07:45:21;;;;;;;10.07;4.47;;;11.50;63.80;;;;;;4970477;28;20417;-83
2022/03/27 07:47:49;;;;;;;7.87;3.67;;;11.60;63.80;;;;;;4981982;28;20028;-84
2022/03/27 07:50:16;;;;;;;8.70;3.65;;;11.60;63.10;;;;;;5001559;28;20443;-83
2022/03/27 07:52:42;;;;;;;8.13;3.88;;;11.60;63.30;;;;;;4974630;28;20033;-83
2022/03/27 07:55:10;;;;;;;8.25;4.00;;;11.60;63.40;;;;;;5018415;28;20045;-84
2022/03/27 07:57:36;;;;;;;7.93;3.83;;;11.60;63.40;;;;;;4996447;28;20105;-84
2022/03/27 08:00:03;;;;;;;7.00;3.45;;;11.60;63.50;;;;;;4964307;28;20276;-83
2022/03/27 08:02:29;;;;;;;9.05;4.05;;;11.60;63.60;;;;;;5009838;28;20037;-84
2022/03/27 08:04:54;;;;;;;8.07;3.47;;;11.60;64.50;;;;;;5006914;28;20486;-84
2022/03/27 08:07:20;;;;;;;6.78;3.67;;;11.60;63.90;;;;;;4975365;28;20050;-84
2022/03/27 08:09:46;;;;;;;6.97;3.50;;;11.70;64.10;;;;;;5008128;28;20023;-85
2022/03/27 08:12:11;;;;;;;9.35;3.90;;;11.70;64.50;;;;;;4992767;28;20026;-85
2022/03/27 08:14:39;;;;;;;7.50;3.70;;;11.70;64.50;;;;;;4982068;28;20036;-83
2022/03/27 08:17:06;;;;;;;7.40;3.70;;;11.80;64.80;;;;;;4966639;28;20026;-83
2022/03/27 08:19:32;;;;;;;7.25;3.85;;;11.80;64.70;;;;;;4981791;28;20030;-84
2022/03/27 08:21:58;;;;;;;7.05;3.78;;;11.80;64.90;;;;;;5007605;28;20021;-83
2022/03/27 08:24:23;;;;;;;6.45;3.40;;;11.80;64.90;;;;;;4969976;28;20033;-83
2022/03/27 08:27:02;;;;;;;6.63;3.70;;;11.90;65.00;;;;;;4996823;28;20069;-84
2022/03/27 08:29:37;;;;;;;7.10;3.55;;;11.90;65.00;;;;;;4991433;28;20033;-84
2022/03/27 08:32:08;;;;;;;6.50;3.38;;;11.90;66.00;;;;;;4989513;28;20650;-84
2022/03/27 08:34:37;;;;;;;7.50;3.43;;;11.90;65.20;;;;;;5003442;28;20026;-83
2022/03/27 08:37:05;;;;;;;7.05;3.15;;;11.90;65.20;;;;;;4991093;28;20122;-83
2022/03/27 08:39:31;;;;;;;6.50;3.13;;;12.00;64.70;;;;;;4995710;28;20030;-83
2022/03/27 08:41:57;;;;;;;8.15;3.92;;;12.00;64.60;;;;;;5003132;28;20125;-84
2022/03/27 08:44:26;;;;;;;8.57;3.67;;;12.00;64.50;;;;;;4997289;28;20120;-83
2022/03/27 08:46:53;;;;;;;8.13;3.77;;;12.10;65.00;;;;;;4990579;28;20163;-84
2022/03/27 08:49:40;;;;;;;7.70;3.72;;;12.10;65.00;;;;;;5002795;28;20025;-84
2022/03/27 08:52:21;;;;;;;7.00;3.35;;;12.10;66.30;;;;;;4984206;28;20677;-84
2022/03/27 08:55:02;;;;;;;6.60;3.50;;;12.20;66.20;;;;;;4995872;28;20051;-82
2022/03/27 08:57:54;;;;;;;7.30;3.83;;;12.20;66.30;;;;;;5026409;28;20017;-83
2022/03/27 09:00:22;;;;;;;6.47;3.33;;;12.30;66.00;;;;;;4984371;28;20031;-83
2022/03/27 09:02:48;;;;;;;8.75;4.15;;;12.30;64.30;;;;;;4974730;28;20033;-83
2022/03/27 09:05:14;;;;;;;6.68;3.42;;;12.30;64.10;;;;;;5003762;28;20037;-84
2022/03/27 09:07:40;;;;;;;8.85;3.83;;;12.40;64.40;;;;;;5005428;28;20041;-84
2022/03/27 09:10:11;;;;;;;8.48;4.00;;;12.40;64.40;;;;;;4985635;28;20022;-84
2022/03/27 09:12:37;;;;;;;6.93;3.63;;;12.40;64.90;;;;;;4998083;28;20032;-85
2022/03/27 09:15:09;;;;;;;7.90;3.70;;;12.50;64.90;;;;;;4979917;28;20232;-85
2022/03/27 09:18:04;;;;;;;8.10;3.90;;;12.50;64.70;;;;;;5001397;28;20034;-82
2022/03/27 09:20:56;;;;;;;8.70;4.00;;;12.60;65.40;;;;;;4998867;28;20065;-84
2022/03/27 09:23:22;;;;;;;7.30;3.67;;;12.60;65.60;;;;;;4995939;28;20042;-84
2022/03/27 09:26:11;;;;;;;7.10;3.70;;;12.60;64.40;;;;;;5003829;28;20038;-85
2022/03/27 09:28:38;;;;;;;8.27;3.90;;;12.60;65.60;;;;;;5009438;28;20022;-84
2022/03/27 09:31:25;;;;;;;10.10;4.07;;;12.60;64.60;;;;;;4980215;28;20029;-84
2022/03/27 09:34:01;;;;;;;8.60;4.10;;;12.60;65.90;;;;;;4973376;28;20037;-82
2022/03/27 09:36:39;;;;;;;8.98;4.18;;;12.70;65.00;;;;;;4991005;28;20033;-84
2022/03/27 09:39:18;;;;;;;8.40;4.03;;;12.70;64.80;;;;;;4980309;28;20670;-84
2022/03/27 09:41:52;;;;;;;7.63;3.63;;;12.70;64.80;;;;;;4995946;28;20034;-85
2022/03/27 09:44:23;;;;;;;8.77;4.22;;;12.70;65.30;;;;;;5003842;28;20630;-84
2022/03/27 09:46:58;;;;;;;8.57;4.28;;;12.80;65.20;;;;;;4986368;28;20255;-84
2022/03/27 09:49:37;;;;;;;9.02;4.18;;;12.80;65.30;;;;;;5014092;28;20083;-84
2022/03/27 09:52:13;;;;;;;8.33;4.03;;;12.90;66.40;;;;;;4988815;28;20151;-84
2022/03/27 09:54:46;;;;;;;7.80;3.50;;;12.90;66.20;;;;;;5003565;28;20347;-84
2022/03/27 09:57:20;;;;;;;7.25;4.03;;;12.90;65.60;;;;;;4981036;28;20112;-84
2022/03/27 09:59:46;;;;;;;10.05;4.50;;;13.00;65.40;;;;;;4978446;28;20105;-84
2022/03/27 10:02:32;;;;;;;9.60;4.75;;;13.00;65.10;;;;;;4976904;28;20084;-84
2022/03/27 10:05:06;;;;;;;9.23;4.30;;;13.10;66.90;;;;;;4957085;28;20161;-84
2022/03/27 10:07:42;;;;;;;9.55;4.45;;;13.10;65.80;;;;;;4982134;28;20061;-84
2022/03/27 10:10:09;;;;;;;9.00;4.20;;;13.10;66.10;;;;;;4992406;28;20266;-85
2022/03/27 10:12:37;;;;;;;8.80;4.55;;;13.20;65.30;;;;;;4989742;28;20425;-83
2022/03/27 10:15:07;;;;;;;9.05;4.57;;;13.20;65.30;;;;;;4986956;28;20347;-83
2022/03/27 10:17:35;;;;;;;8.10;4.00;;;13.20;65.10;;;;;;4971588;28;20577;-82
2022/03/27 10:20:10;;;;;;;9.77;4.68;;;13.20;65.00;;;;;;4959897;28;20365;-84
2022/03/27 10:23:09;;;;;;;10.32;4.82;;;13.20;65.00;;;;;;4996608;28;20029;-84
2022/03/27 10:25:40;;;;;;;9.75;4.47;;;13.20;66.10;;;;;;4984898;28;20738;-84
2022/03/27 10:28:07;;;;;;;9.27;4.38;;;13.30;65.20;;;;;;4982906;28;20035;-85
2022/03/27 10:30:34;;;;;;;11.27;4.47;;;13.30;64.90;;;;;;4975625;28;20142;-84
2022/03/27 10:33:01;;;;;;;9.07;4.63;;;13.30;65.20;;;;;;4983087;28;20025;-84
2022/03/27 10:35:36;;;;;;;11.13;4.68;;;13.30;65.00;;;;;;4952751;28;20266;-84
2022/03/27 10:38:28;;;;;;;8.95;4.30;;;13.40;65.10;;;;;;4998070;28;20041;-84
2022/03/27 10:41:15;;;;;;;10.75;4.50;;;13.40;65.00;;;;;;5010234;28;20099;-83
2022/03/27 10:44:00;;;;;;;9.10;4.17;;;13.40;64.70;;;;;;4991727;28;20292;-84
2022/03/27 10:46:29;;;;;;;9.52;4.35;;;13.40;65.20;;;;;;5001745;28;20657;-83
2022/03/27 10:49:12;;;;;;;10.90;4.82;;;13.40;64.30;;;;;;4969424;28;20146;-83
2022/03/27 10:51:40;;;;;;;10.82;4.60;;;13.50;65.50;;;;;;4975002;28;20695;-84
2022/03/27 10:54:06;;;;;;;9.90;5.00;;;13.50;64.50;;;;;;5004673;28;20025;-84
2022/03/27 10:56:56;;;;;;;10.53;4.73;;;13.50;64.40;;;;;;4961197;28;20248;-84
2022/03/27 10:59:26;;;;;;;9.93;4.25;;;13.50;65.90;;;;;;4979166;28;20030;-84
2022/03/27 11:01:58;;;;;;;12.27;5.43;;;13.50;64.40;;;;;;5013989;28;20040;-84
2022/03/27 11:04:41;;;;;;;12.47;5.20;;;13.50;64.60;;;;;;4983967;28;20157;-84
2022/03/27 11:07:16;;;;;;;10.95;4.85;;;13.50;65.30;;;;;;4978105;28;20030;-85
2022/03/27 11:09:46;;;;;;;11.05;5.43;;;13.60;65.50;;;;;;5013972;28;20592;-85
2022/03/27 11:12:28;;;;;;;13.18;5.22;;;13.60;65.00;;;;;;4973104;28;20029;-84
2022/03/27 11:14:55;;;;;;;13.43;5.50;;;13.60;66.10;;;;;;5001242;28;20025;-84
2022/03/27 11:17:50;;;;;;;11.13;5.27;;;13.70;65.10;;;;;;5005044;28;20737;-84
2022/03/27 11:20:21;;;;;;;11.13;4.82;;;13.70;66.50;;;;;;4995039;28;20034;-84
2022/03/27 11:22:53;;;;;;;12.05;5.35;;;13.70;65.20;;;;;;4986715;28;20148;-84
2022/03/27 11:25:46;;;;;;;11.60;5.03;;;13.80;65.40;;;;;;4984148;28;20053;-85
2022/03/27 11:28:16;;;;;;;11.23;5.38;;;13.80;66.30;;;;;;4982882;28;20054;-84
2022/03/27 11:30:48;;;;;;;10.27;4.97;;;13.80;65.20;;;;;;4981362;28;20069;-85
2022/03/27 11:33:13;;;;;;;12.25;5.60;;;13.90;65.10;;;;;;4995121;28;20048;-84
2022/03/27 11:36:07;;;;;;;10.98;5.13;;;13.90;65.10;;;;;;4983769;28;20046;-85
2022/03/27 11:38:51;;;;;;;10.55;4.60;;;13.90;66.20;;;;;;4967077;28;20499;-84
2022/03/27 11:41:45;;;;;;;10.80;4.93;;;14.00;66.20;;;;;;4976651;28;20034;-84
2022/03/27 11:47:20;;;;;;;10.77;4.57;;;14.10;65.20;;;;;;5026672;28;20084;-84
2022/03/27 11:49:48;;;;;;;11.82;4.95;;;14.10;64.50;;;;;;4974399;28;20238;-83
2022/03/27 11:52:16;;;;;;;11.85;5.30;;;14.10;64.60;;;;;;4999150;28;20437;-84
2022/03/27 11:54:46;;;;;;;9.87;4.70;;;14.20;65.00;;;;;;4963077;28;20466;-85
2022/03/27 11:57:13;;;;;;;11.40;5.32;;;14.20;64.90;;;;;;5011966;28;20402;-85
2022/03/27 11:59:57;;;;;;;12.38;5.22;;;14.30;65.10;;;;;;4972174;28;20385;-84
2022/03/27 12:02:40;;;;;;;10.95;5.00;;;14.30;66.20;;;;;;5013802;28;20030;-84
2022/03/27 12:05:06;;;;;;;11.52;5.22;;;14.40;66.20;;;;;;4993776;28;20489;-85
2022/03/27 12:07:55;;;;;;;12.57;5.43;;;14.50;65.30;;;;;;5010129;28;20045;-84
2022/03/27 12:10:22;;;;;;;10.52;4.68;;;14.60;66.30;;;;;;4976651;28;20496;-84
2022/03/27 12:13:08;;;;;;;11.57;5.43;;;14.70;65.00;;;;;;4984187;28;20034;-84
2022/03/27 12:15:52;;;;;;;12.38;5.32;;;14.80;65.00;;;;;;5003186;28;20509;-85
2022/03/27 12:18:40;;;;;;;11.65;5.65;;;14.80;65.30;;;;;;4963748;28;20315;-84
2022/03/27 12:21:12;;;;;;;12.00;5.70;;;14.90;65.60;;;;;;4998362;28;20161;-84
2022/03/27 12:23:51;;;;;;;10.73;5.40;;;15.00;65.10;;;;;;4998344;28;20119;-85
2022/03/27 12:29:49;;;;;;;12.57;5.53;;;15.10;65.40;;;;;;4988760;28;20037;-85
2022/03/27 12:32:25;;;;;;;10.85;5.60;;;15.30;65.80;;;;;;4999537;28;20134;-84
2022/03/27 12:34:57;;;;;;;12.80;6.13;;;15.40;65.30;;;;;;5000282;28;20033;-85
2022/03/27 12:37:24;;;;;;;13.07;6.18;;;15.50;65.10;;;;;;4981626;28;20061;-85
2022/03/27 12:39:50;;;;;;;12.55;5.53;;;15.60;65.00;;;;;;4966781;28;20021;-86
2022/03/27 12:42:49;;;;;;;11.20;5.83;;;15.70;65.00;;;;;;4995878;28;20026;-84
2022/03/27 12:45:25;;;;;;;12.90;6.55;;;15.80;65.80;;;;;;4967996;28;20573;-85
2022/03/27 12:47:59;;;;;;;13.02;6.28;;;15.90;65.10;;;;;;4978039;28;20044;-84
2022/03/27 12:50:29;;;;;;;14.00;6.78;;;16.00;64.80;;;;;;5007964;28;20025;-84
2022/03/27 12:53:26;;;;;;;12.13;6.55;;;16.10;64.60;;;;;;4972851;28;20030;-84
2022/03/27 12:55:56;;;;;;;12.03;5.93;;;16.20;64.80;;;;;;4956550;28;20131;-84
2022/03/27 12:58:37;;;;;;;12.80;6.32;;;16.30;64.60;;;;;;4994096;28;20441;-83
2022/03/27 13:01:23;;;;;;;13.13;6.75;;;16.30;63.90;;;;;;5002950;28;20666;-83
2022/03/27 13:04:01;;;;;;;14.02;6.40;;;16.40;64.40;;;;;;4970064;28;20121;-84
2022/03/27 13:06:36;;;;;;;11.85;6.25;;;16.50;64.20;;;;;;4992924;28;20049;-85
2022/03/27 13:09:07;;;;;;;13.70;7.10;;;16.60;64.40;;;;;;4980807;28;20053;-85